sensor_id;sensor_type;location;lat;lon;timestamp;P1;durP1;ratioP1;P2;durP2;ratioP2
18445;SDS011;9352;50.888;4.466;2022-08-19T00:01:56;33.30;;;17.30;;
18445;SDS011;9352;50.888;4.466;2022-08-19T00:04:25;26.40;;;17.27;;
18445;SDS011;9352;50.888;4.466;2022-08-19T00:06:56;32.55;;;17.98;;
18445;SDS011;9352;50.888;4.466;2022-08-19T00:09:24;33.22;;;16.83;;
18445;SDS011;9352;50.888;4.466;2022-08-19T00:11:55;28.45;;;19.00;;
18445;SDS011;9352;50.888;4.466;2022-08-19T00:14:23;34.70;;;19.65;;
18445;SDS011;9352;50.888;4.466;2022-08-19T00:16:52;28.45;;;19.85;;
18445;SDS011;9352;50.888;4.466;2022-08-19T00:19:20;32.50;;;21.38;;
18445;SDS011;9352;50.888;4.466;2022-08-19T00:21:50;31.08;;;20.20;;
18445;SDS011;9352;50.888;4.466;2022-08-19T00:24:17;32.50;;;22.23;;
18445;SDS011;9352;50.888;4.466;2022-08-19T00:26:47;35.97;;;23.48;;
18445;SDS011;9352;50.888;4.466;2022-08-19T00:29:17;39.53;;;25.63;;
18445;SDS011;9352;50.888;4.466;2022-08-19T00:31:45;40.13;;;25.38;;
18445;SDS011;9352;50.888;4.466;2022-08-19T00:34:13;41.08;;;26.05;;
18445;SDS011;9352;50.888;4.466;2022-08-19T00:36:41;40.75;;;27.35;;
18445;SDS011;9352;50.888;4.466;2022-08-19T00:39:09;44.42;;;26.80;;
18445;SDS011;9352;50.888;4.466;2022-08-19T00:41:36;49.78;;;29.17;;
18445;SDS011;9352;50.888;4.466;2022-08-19T00:44:05;49.28;;;29.50;;
18445;SDS011;9352;50.888;4.466;2022-08-19T00:46:36;52.80;;;31.10;;
18445;SDS011;9352;50.888;4.466;2022-08-19T00:49:06;55.88;;;32.50;;
18445;SDS011;9352;50.888;4.466;2022-08-19T00:51:37;61.10;;;33.00;;
18445;SDS011;9352;50.888;4.466;2022-08-19T00:54:04;55.80;;;33.70;;
18445;SDS011;9352;50.888;4.466;2022-08-19T00:56:32;54.40;;;32.10;;
18445;SDS011;9352;50.888;4.466;2022-08-19T00:58:59;60.60;;;33.38;;
18445;SDS011;9352;50.888;4.466;2022-08-19T01:01:28;67.47;;;37.88;;
18445;SDS011;9352;50.888;4.466;2022-08-19T01:03:56;68.18;;;38.10;;
18445;SDS011;9352;50.888;4.466;2022-08-19T01:06:23;61.40;;;34.97;;
18445;SDS011;9352;50.888;4.466;2022-08-19T01:08:50;69.47;;;38.50;;
18445;SDS011;9352;50.888;4.466;2022-08-19T01:11:17;69.53;;;37.40;;
18445;SDS011;9352;50.888;4.466;2022-08-19T01:13:44;61.97;;;36.28;;
18445;SDS011;9352;50.888;4.466;2022-08-19T01:16:12;65.90;;;37.08;;
18445;SDS011;9352;50.888;4.466;2022-08-19T01:18:40;69.55;;;38.45;;
18445;SDS011;9352;50.888;4.466;2022-08-19T01:21:11;61.22;;;36.22;;
18445;SDS011;9352;50.888;4.466;2022-08-19T01:23:49;70.25;;;37.15;;
18445;SDS011;9352;50.888;4.466;2022-08-19T01:26:17;65.55;;;36.03;;
18445;SDS011;9352;50.888;4.466;2022-08-19T01:28:48;64.25;;;35.83;;
18445;SDS011;9352;50.888;4.466;2022-08-19T01:31:17;67.65;;;35.05;;
18445;SDS011;9352;50.888;4.466;2022-08-19T01:33:47;65.60;;;35.47;;
18445;SDS011;9352;50.888;4.466;2022-08-19T01:36:16;63.47;;;35.08;;
18445;SDS011;9352;50.888;4.466;2022-08-19T01:38:52;59.45;;;33.58;;
18445;SDS011;9352;50.888;4.466;2022-08-19T01:41:19;54.47;;;31.70;;
18445;SDS011;9352;50.888;4.466;2022-08-19T01:43:48;52.38;;;30.23;;
18445;SDS011;9352;50.888;4.466;2022-08-19T01:46:15;52.38;;;30.63;;
18445;SDS011;9352;50.888;4.466;2022-08-19T01:48:43;50.75;;;30.08;;
18445;SDS011;9352;50.888;4.466;2022-08-19T01:51:10;44.88;;;26.67;;
18445;SDS011;9352;50.888;4.466;2022-08-19T01:53:38;46.08;;;27.48;;
18445;SDS011;9352;50.888;4.466;2022-08-19T01:56:07;46.35;;;27.80;;
18445;SDS011;9352;50.888;4.466;2022-08-19T01:58:35;49.45;;;28.33;;
18445;SDS011;9352;50.888;4.466;2022-08-19T02:01:07;47.72;;;27.35;;
18445;SDS011;9352;50.888;4.466;2022-08-19T02:03:34;42.40;;;27.40;;
18445;SDS011;9352;50.888;4.466;2022-08-19T02:06:01;46.42;;;27.13;;
18445;SDS011;9352;50.888;4.466;2022-08-19T02:08:31;45.72;;;26.67;;
18445;SDS011;9352;50.888;4.466;2022-08-19T02:11:00;46.25;;;27.75;;
18445;SDS011;9352;50.888;4.466;2022-08-19T02:13:30;46.08;;;27.60;;
18445;SDS011;9352;50.888;4.466;2022-08-19T02:15:58;44.97;;;26.40;;
18445;SDS011;9352;50.888;4.466;2022-08-19T02:18:25;40.63;;;26.33;;
18445;SDS011;9352;50.888;4.466;2022-08-19T02:20:52;44.92;;;25.42;;
18445;SDS011;9352;50.888;4.466;2022-08-19T02:23:20;44.72;;;25.02;;
18445;SDS011;9352;50.888;4.466;2022-08-19T02:25:47;40.38;;;25.60;;
18445;SDS011;9352;50.888;4.466;2022-08-19T02:28:14;38.90;;;24.80;;
18445;SDS011;9352;50.888;4.466;2022-08-19T02:30:43;38.50;;;24.23;;
18445;SDS011;9352;50.888;4.466;2022-08-19T02:33:10;33.95;;;22.02;;
18445;SDS011;9352;50.888;4.466;2022-08-19T02:35:37;35.40;;;22.23;;
18445;SDS011;9352;50.888;4.466;2022-08-19T02:38:07;30.77;;;19.17;;
18445;SDS011;9352;50.888;4.466;2022-08-19T02:40:51;25.55;;;16.52;;
18445;SDS011;9352;50.888;4.466;2022-08-19T02:43:19;27.75;;;16.67;;
18445;SDS011;9352;50.888;4.466;2022-08-19T02:45:48;30.95;;;17.58;;
18445;SDS011;9352;50.888;4.466;2022-08-19T02:48:16;26.60;;;16.98;;
18445;SDS011;9352;50.888;4.466;2022-08-19T02:50:44;28.85;;;18.33;;
18445;SDS011;9352;50.888;4.466;2022-08-19T02:53:11;27.88;;;17.73;;
18445;SDS011;9352;50.888;4.466;2022-08-19T02:55:42;28.65;;;18.52;;
18445;SDS011;9352;50.888;4.466;2022-08-19T02:58:11;28.40;;;19.25;;
18445;SDS011;9352;50.888;4.466;2022-08-19T03:00:44;30.10;;;19.15;;
18445;SDS011;9352;50.888;4.466;2022-08-19T03:03:14;32.33;;;19.80;;
18445;SDS011;9352;50.888;4.466;2022-08-19T03:05:42;31.30;;;19.92;;
18445;SDS011;9352;50.888;4.466;2022-08-19T03:08:10;35.08;;;20.17;;
18445;SDS011;9352;50.888;4.466;2022-08-19T03:10:42;31.70;;;19.98;;
18445;SDS011;9352;50.888;4.466;2022-08-19T03:13:10;32.80;;;19.65;;
18445;SDS011;9352;50.888;4.466;2022-08-19T03:15:39;34.40;;;21.00;;
18445;SDS011;9352;50.888;4.466;2022-08-19T03:18:07;29.02;;;18.88;;
18445;SDS011;9352;50.888;4.466;2022-08-19T03:20:35;31.35;;;18.60;;
18445;SDS011;9352;50.888;4.466;2022-08-19T03:23:06;33.65;;;19.33;;
18445;SDS011;9352;50.888;4.466;2022-08-19T03:25:35;30.08;;;18.27;;
18445;SDS011;9352;50.888;4.466;2022-08-19T03:28:03;32.75;;;18.63;;
18445;SDS011;9352;50.888;4.466;2022-08-19T03:30:30;30.20;;;16.90;;
18445;SDS011;9352;50.888;4.466;2022-08-19T03:32:57;29.70;;;17.67;;
18445;SDS011;9352;50.888;4.466;2022-08-19T03:35:24;30.73;;;18.48;;
18445;SDS011;9352;50.888;4.466;2022-08-19T03:37:52;32.15;;;17.85;;
18445;SDS011;9352;50.888;4.466;2022-08-19T03:40:19;36.17;;;18.10;;
18445;SDS011;9352;50.888;4.466;2022-08-19T03:42:46;31.52;;;18.33;;
18445;SDS011;9352;50.888;4.466;2022-08-19T03:45:13;32.42;;;18.10;;
18445;SDS011;9352;50.888;4.466;2022-08-19T03:47:40;30.75;;;18.00;;
18445;SDS011;9352;50.888;4.466;2022-08-19T03:50:07;28.67;;;17.13;;
18445;SDS011;9352;50.888;4.466;2022-08-19T03:52:34;32.53;;;17.80;;
18445;SDS011;9352;50.888;4.466;2022-08-19T03:55:03;28.70;;;17.30;;
18445;SDS011;9352;50.888;4.466;2022-08-19T03:57:30;32.53;;;17.17;;
18445;SDS011;9352;50.888;4.466;2022-08-19T03:59:58;32.47;;;17.00;;
18445;SDS011;9352;50.888;4.466;2022-08-19T04:02:26;27.55;;;17.00;;
18445;SDS011;9352;50.888;4.466;2022-08-19T04:04:53;32.63;;;17.83;;
18445;SDS011;9352;50.888;4.466;2022-08-19T04:07:20;31.65;;;16.40;;
18445;SDS011;9352;50.888;4.466;2022-08-19T04:09:47;30.38;;;16.50;;
18445;SDS011;9352;50.888;4.466;2022-08-19T04:12:15;26.05;;;15.95;;
18445;SDS011;9352;50.888;4.466;2022-08-19T04:14:42;28.25;;;16.08;;
18445;SDS011;9352;50.888;4.466;2022-08-19T04:17:09;35.35;;;17.02;;
18445;SDS011;9352;50.888;4.466;2022-08-19T04:19:38;35.05;;;17.73;;
18445;SDS011;9352;50.888;4.466;2022-08-19T04:22:05;37.78;;;18.27;;
18445;SDS011;9352;50.888;4.466;2022-08-19T04:24:33;30.38;;;17.40;;
18445;SDS011;9352;50.888;4.466;2022-08-19T04:27:01;30.35;;;17.85;;
18445;SDS011;9352;50.888;4.466;2022-08-19T04:29:29;30.63;;;17.70;;
18445;SDS011;9352;50.888;4.466;2022-08-19T04:31:56;31.40;;;17.35;;
18445;SDS011;9352;50.888;4.466;2022-08-19T04:34:25;30.38;;;17.35;;
18445;SDS011;9352;50.888;4.466;2022-08-19T04:36:54;33.67;;;18.70;;
18445;SDS011;9352;50.888;4.466;2022-08-19T04:39:23;35.20;;;17.55;;
18445;SDS011;9352;50.888;4.466;2022-08-19T04:42:12;34.42;;;17.67;;
18445;SDS011;9352;50.888;4.466;2022-08-19T04:44:57;37.42;;;17.52;;
18445;SDS011;9352;50.888;4.466;2022-08-19T04:47:25;33.05;;;17.63;;
18445;SDS011;9352;50.888;4.466;2022-08-19T04:49:51;39.65;;;17.25;;
18445;SDS011;9352;50.888;4.466;2022-08-19T04:52:18;36.72;;;17.42;;
18445;SDS011;9352;50.888;4.466;2022-08-19T04:54:45;33.22;;;17.27;;
18445;SDS011;9352;50.888;4.466;2022-08-19T04:57:13;33.88;;;15.95;;
18445;SDS011;9352;50.888;4.466;2022-08-19T04:59:40;28.27;;;16.15;;
18445;SDS011;9352;50.888;4.466;2022-08-19T05:02:08;44.05;;;16.50;;
18445;SDS011;9352;50.888;4.466;2022-08-19T05:04:36;26.45;;;15.57;;
18445;SDS011;9352;50.888;4.466;2022-08-19T05:07:04;33.58;;;15.80;;
18445;SDS011;9352;50.888;4.466;2022-08-19T05:09:31;28.17;;;15.30;;
18445;SDS011;9352;50.888;4.466;2022-08-19T05:11:58;29.20;;;15.43;;
18445;SDS011;9352;50.888;4.466;2022-08-19T05:14:25;25.75;;;14.85;;
18445;SDS011;9352;50.888;4.466;2022-08-19T05:16:51;24.95;;;14.35;;
18445;SDS011;9352;50.888;4.466;2022-08-19T05:19:20;28.35;;;14.20;;
18445;SDS011;9352;50.888;4.466;2022-08-19T05:22:04;27.80;;;13.35;;
18445;SDS011;9352;50.888;4.466;2022-08-19T05:24:48;26.95;;;12.35;;
18445;SDS011;9352;50.888;4.466;2022-08-19T05:27:15;25.80;;;12.27;;
18445;SDS011;9352;50.888;4.466;2022-08-19T05:29:42;36.00;;;11.20;;
18445;SDS011;9352;50.888;4.466;2022-08-19T05:32:08;21.88;;;10.48;;
18445;SDS011;9352;50.888;4.466;2022-08-19T05:34:37;42.35;;;10.98;;
18445;SDS011;9352;50.888;4.466;2022-08-19T05:37:04;25.27;;;11.10;;
18445;SDS011;9352;50.888;4.466;2022-08-19T05:39:34;22.52;;;10.60;;
18445;SDS011;9352;50.888;4.466;2022-08-19T05:42:03;23.75;;;11.60;;
18445;SDS011;9352;50.888;4.466;2022-08-19T05:44:33;23.75;;;10.85;;
18445;SDS011;9352;50.888;4.466;2022-08-19T05:47:04;22.67;;;10.85;;
18445;SDS011;9352;50.888;4.466;2022-08-19T05:49:34;24.80;;;10.20;;
18445;SDS011;9352;50.888;4.466;2022-08-19T05:52:04;21.95;;;10.30;;
18445;SDS011;9352;50.888;4.466;2022-08-19T05:54:32;22.60;;;11.07;;
18445;SDS011;9352;50.888;4.466;2022-08-19T05:57:00;26.92;;;11.52;;
18445;SDS011;9352;50.888;4.466;2022-08-19T05:59:28;21.77;;;11.02;;
18445;SDS011;9352;50.888;4.466;2022-08-19T06:01:54;114.38;;;14.77;;
18445;SDS011;9352;50.888;4.466;2022-08-19T06:04:22;26.95;;;11.90;;
18445;SDS011;9352;50.888;4.466;2022-08-19T06:06:50;24.83;;;10.95;;
18445;SDS011;9352;50.888;4.466;2022-08-19T06:09:20;33.10;;;11.20;;
18445;SDS011;9352;50.888;4.466;2022-08-19T06:11:48;26.73;;;11.95;;
18445;SDS011;9352;50.888;4.466;2022-08-19T06:14:20;38.00;;;12.13;;
18445;SDS011;9352;50.888;4.466;2022-08-19T06:16:48;23.50;;;10.27;;
18445;SDS011;9352;50.888;4.466;2022-08-19T06:19:16;23.17;;;10.93;;
18445;SDS011;9352;50.888;4.466;2022-08-19T06:21:46;22.08;;;10.88;;
18445;SDS011;9352;50.888;4.466;2022-08-19T06:24:14;20.98;;;9.60;;
18445;SDS011;9352;50.888;4.466;2022-08-19T06:26:46;24.45;;;11.00;;
18445;SDS011;9352;50.888;4.466;2022-08-19T06:29:14;19.13;;;10.35;;
18445;SDS011;9352;50.888;4.466;2022-08-19T06:31:44;24.98;;;10.15;;
18445;SDS011;9352;50.888;4.466;2022-08-19T06:34:14;18.55;;;9.15;;
18445;SDS011;9352;50.888;4.466;2022-08-19T06:36:42;17.30;;;9.00;;
18445;SDS011;9352;50.888;4.466;2022-08-19T06:39:12;18.83;;;9.90;;
18445;SDS011;9352;50.888;4.466;2022-08-19T06:41:41;24.67;;;9.45;;
18445;SDS011;9352;50.888;4.466;2022-08-19T06:44:11;31.75;;;9.57;;
18445;SDS011;9352;50.888;4.466;2022-08-19T06:46:39;13.55;;;8.65;;
18445;SDS011;9352;50.888;4.466;2022-08-19T06:49:07;15.77;;;7.65;;
18445;SDS011;9352;50.888;4.466;2022-08-19T06:51:36;12.52;;;7.68;;
18445;SDS011;9352;50.888;4.466;2022-08-19T06:54:04;23.38;;;7.90;;
18445;SDS011;9352;50.888;4.466;2022-08-19T06:56:32;14.55;;;7.90;;
18445;SDS011;9352;50.888;4.466;2022-08-19T06:59:00;17.10;;;7.38;;
18445;SDS011;9352;50.888;4.466;2022-08-19T07:01:30;15.55;;;7.68;;
18445;SDS011;9352;50.888;4.466;2022-08-19T07:04:02;18.38;;;7.18;;
18445;SDS011;9352;50.888;4.466;2022-08-19T07:06:29;13.45;;;6.70;;
18445;SDS011;9352;50.888;4.466;2022-08-19T07:08:57;14.15;;;7.03;;
18445;SDS011;9352;50.888;4.466;2022-08-19T07:11:24;13.88;;;7.22;;
18445;SDS011;9352;50.888;4.466;2022-08-19T07:13:51;14.25;;;7.57;;
18445;SDS011;9352;50.888;4.466;2022-08-19T07:16:18;16.63;;;7.47;;
18445;SDS011;9352;50.888;4.466;2022-08-19T07:18:47;12.32;;;6.60;;
18445;SDS011;9352;50.888;4.466;2022-08-19T07:21:15;13.90;;;7.15;;
18445;SDS011;9352;50.888;4.466;2022-08-19T07:23:43;13.98;;;6.63;;
18445;SDS011;9352;50.888;4.466;2022-08-19T07:26:11;9.77;;;6.93;;
18445;SDS011;9352;50.888;4.466;2022-08-19T07:28:39;11.85;;;6.43;;
18445;SDS011;9352;50.888;4.466;2022-08-19T07:31:09;14.35;;;6.85;;
18445;SDS011;9352;50.888;4.466;2022-08-19T07:33:37;13.88;;;6.40;;
18445;SDS011;9352;50.888;4.466;2022-08-19T07:36:07;12.15;;;5.75;;
18445;SDS011;9352;50.888;4.466;2022-08-19T07:38:36;8.85;;;5.95;;
18445;SDS011;9352;50.888;4.466;2022-08-19T07:41:05;44.38;;;8.55;;
18445;SDS011;9352;50.888;4.466;2022-08-19T07:43:34;24.05;;;6.95;;
18445;SDS011;9352;50.888;4.466;2022-08-19T07:46:01;8.57;;;6.40;;
18445;SDS011;9352;50.888;4.466;2022-08-19T07:48:28;9.65;;;5.88;;
18445;SDS011;9352;50.888;4.466;2022-08-19T07:50:57;8.93;;;5.60;;
18445;SDS011;9352;50.888;4.466;2022-08-19T07:53:28;16.98;;;5.55;;
18445;SDS011;9352;50.888;4.466;2022-08-19T07:55:57;13.50;;;5.50;;
18445;SDS011;9352;50.888;4.466;2022-08-19T07:58:29;12.77;;;5.25;;
18445;SDS011;9352;50.888;4.466;2022-08-19T08:00:57;8.88;;;4.93;;
18445;SDS011;9352;50.888;4.466;2022-08-19T08:03:25;13.38;;;5.07;;
18445;SDS011;9352;50.888;4.466;2022-08-19T08:06:07;11.40;;;4.90;;
18445;SDS011;9352;50.888;4.466;2022-08-19T08:08:49;11.45;;;5.40;;
18445;SDS011;9352;50.888;4.466;2022-08-19T08:11:33;16.98;;;4.78;;
18445;SDS011;9352;50.888;4.466;2022-08-19T08:14:00;12.10;;;4.85;;
18445;SDS011;9352;50.888;4.466;2022-08-19T08:16:28;9.93;;;4.18;;
18445;SDS011;9352;50.888;4.466;2022-08-19T08:18:56;5.78;;;4.90;;
18445;SDS011;9352;50.888;4.466;2022-08-19T08:21:24;8.63;;;5.22;;
18445;SDS011;9352;50.888;4.466;2022-08-19T08:23:52;18.73;;;5.75;;
18445;SDS011;9352;50.888;4.466;2022-08-19T08:26:20;12.27;;;5.47;;
18445;SDS011;9352;50.888;4.466;2022-08-19T08:28:47;9.75;;;4.88;;
18445;SDS011;9352;50.888;4.466;2022-08-19T08:31:14;9.30;;;4.78;;
18445;SDS011;9352;50.888;4.466;2022-08-19T08:33:41;9.02;;;5.70;;
18445;SDS011;9352;50.888;4.466;2022-08-19T08:36:08;9.73;;;5.93;;
18445;SDS011;9352;50.888;4.466;2022-08-19T08:38:36;8.52;;;4.80;;
18445;SDS011;9352;50.888;4.466;2022-08-19T08:41:06;11.30;;;4.93;;
18445;SDS011;9352;50.888;4.466;2022-08-19T08:43:44;5.93;;;4.20;;
18445;SDS011;9352;50.888;4.466;2022-08-19T08:46:13;10.00;;;4.68;;
18445;SDS011;9352;50.888;4.466;2022-08-19T08:48:46;9.52;;;4.90;;
18445;SDS011;9352;50.888;4.466;2022-08-19T08:51:20;12.88;;;4.40;;
18445;SDS011;9352;50.888;4.466;2022-08-19T08:53:51;9.05;;;4.63;;
18445;SDS011;9352;50.888;4.466;2022-08-19T08:56:21;8.38;;;4.70;;
18445;SDS011;9352;50.888;4.466;2022-08-19T08:58:50;11.02;;;4.80;;
18445;SDS011;9352;50.888;4.466;2022-08-19T09:01:22;9.60;;;4.22;;
18445;SDS011;9352;50.888;4.466;2022-08-19T09:03:49;7.15;;;4.40;;
18445;SDS011;9352;50.888;4.466;2022-08-19T09:06:18;7.03;;;4.50;;
18445;SDS011;9352;50.888;4.466;2022-08-19T09:08:53;8.98;;;5.28;;
18445;SDS011;9352;50.888;4.466;2022-08-19T09:11:37;8.27;;;5.07;;
18445;SDS011;9352;50.888;4.466;2022-08-19T09:14:15;8.77;;;5.70;;
18445;SDS011;9352;50.888;4.466;2022-08-19T09:16:49;11.38;;;6.07;;
18445;SDS011;9352;50.888;4.466;2022-08-19T09:19:16;10.40;;;5.90;;
18445;SDS011;9352;50.888;4.466;2022-08-19T09:21:43;10.07;;;5.30;;
18445;SDS011;9352;50.888;4.466;2022-08-19T09:24:11;9.48;;;5.00;;
18445;SDS011;9352;50.888;4.466;2022-08-19T09:26:39;10.52;;;5.93;;
18445;SDS011;9352;50.888;4.466;2022-08-19T09:29:08;6.55;;;5.13;;
18445;SDS011;9352;50.888;4.466;2022-08-19T09:31:36;7.53;;;5.10;;
18445;SDS011;9352;50.888;4.466;2022-08-19T09:34:03;6.28;;;5.22;;
18445;SDS011;9352;50.888;4.466;2022-08-19T09:36:30;7.10;;;5.03;;
18445;SDS011;9352;50.888;4.466;2022-08-19T09:39:01;10.27;;;4.78;;
18445;SDS011;9352;50.888;4.466;2022-08-19T09:41:28;8.38;;;5.53;;
18445;SDS011;9352;50.888;4.466;2022-08-19T09:43:59;8.57;;;5.53;;
18445;SDS011;9352;50.888;4.466;2022-08-19T09:46:27;15.82;;;6.40;;
18445;SDS011;9352;50.888;4.466;2022-08-19T09:48:57;6.78;;;4.90;;
18445;SDS011;9352;50.888;4.466;2022-08-19T09:51:26;9.23;;;5.57;;
18445;SDS011;9352;50.888;4.466;2022-08-19T09:53:54;10.95;;;4.82;;
18445;SDS011;9352;50.888;4.466;2022-08-19T09:56:24;7.55;;;4.82;;
18445;SDS011;9352;50.888;4.466;2022-08-19T09:58:51;10.02;;;4.90;;
18445;SDS011;9352;50.888;4.466;2022-08-19T10:01:20;9.25;;;4.97;;
18445;SDS011;9352;50.888;4.466;2022-08-19T10:03:50;8.77;;;4.82;;
18445;SDS011;9352;50.888;4.466;2022-08-19T10:06:19;9.68;;;4.90;;
18445;SDS011;9352;50.888;4.466;2022-08-19T10:08:46;10.40;;;5.60;;
18445;SDS011;9352;50.888;4.466;2022-08-19T10:11:14;8.25;;;5.20;;
18445;SDS011;9352;50.888;4.466;2022-08-19T10:13:42;5.28;;;4.32;;
18445;SDS011;9352;50.888;4.466;2022-08-19T10:16:10;10.05;;;4.82;;
18445;SDS011;9352;50.888;4.466;2022-08-19T10:18:40;8.23;;;4.57;;
18445;SDS011;9352;50.888;4.466;2022-08-19T10:21:09;8.55;;;5.28;;
18445;SDS011;9352;50.888;4.466;2022-08-19T10:23:39;6.30;;;4.55;;
18445;SDS011;9352;50.888;4.466;2022-08-19T10:26:08;12.10;;;5.00;;
18445;SDS011;9352;50.888;4.466;2022-08-19T10:28:36;72.55;;;7.50;;
18445;SDS011;9352;50.888;4.466;2022-08-19T10:31:04;33.55;;;5.32;;
18445;SDS011;9352;50.888;4.466;2022-08-19T10:33:32;14.38;;;4.25;;
18445;SDS011;9352;50.888;4.466;2022-08-19T10:36:01;5.53;;;4.18;;
18445;SDS011;9352;50.888;4.466;2022-08-19T10:38:30;4.80;;;3.83;;
18445;SDS011;9352;50.888;4.466;2022-08-19T10:40:56;5.00;;;3.90;;
18445;SDS011;9352;50.888;4.466;2022-08-19T10:43:24;8.82;;;3.50;;
18445;SDS011;9352;50.888;4.466;2022-08-19T10:45:54;5.43;;;3.20;;
18445;SDS011;9352;50.888;4.466;2022-08-19T10:48:24;9.43;;;3.83;;
18445;SDS011;9352;50.888;4.466;2022-08-19T10:50:51;5.28;;;3.50;;
18445;SDS011;9352;50.888;4.466;2022-08-19T10:53:37;7.88;;;4.03;;
18445;SDS011;9352;50.888;4.466;2022-08-19T10:56:03;7.55;;;3.90;;
18445;SDS011;9352;50.888;4.466;2022-08-19T10:58:48;6.00;;;4.40;;
18445;SDS011;9352;50.888;4.466;2022-08-19T11:01:15;7.05;;;4.65;;
18445;SDS011;9352;50.888;4.466;2022-08-19T11:03:42;7.63;;;4.70;;
18445;SDS011;9352;50.888;4.466;2022-08-19T11:06:10;9.23;;;4.95;;
18445;SDS011;9352;50.888;4.466;2022-08-19T11:08:39;7.95;;;4.68;;
18445;SDS011;9352;50.888;4.466;2022-08-19T11:11:07;7.10;;;4.80;;
18445;SDS011;9352;50.888;4.466;2022-08-19T11:13:35;10.00;;;5.03;;
18445;SDS011;9352;50.888;4.466;2022-08-19T11:16:04;7.53;;;5.35;;
18445;SDS011;9352;50.888;4.466;2022-08-19T11:18:33;8.77;;;5.50;;
18445;SDS011;9352;50.888;4.466;2022-08-19T11:21:05;7.00;;;5.80;;
18445;SDS011;9352;50.888;4.466;2022-08-19T11:23:33;8.45;;;5.28;;
18445;SDS011;9352;50.888;4.466;2022-08-19T11:26:01;10.88;;;5.65;;
18445;SDS011;9352;50.888;4.466;2022-08-19T11:28:29;5.72;;;5.03;;
18445;SDS011;9352;50.888;4.466;2022-08-19T11:30:56;5.57;;;4.30;;
18445;SDS011;9352;50.888;4.466;2022-08-19T11:33:23;5.93;;;4.40;;
18445;SDS011;9352;50.888;4.466;2022-08-19T11:35:51;5.25;;;4.10;;
18445;SDS011;9352;50.888;4.466;2022-08-19T11:38:19;7.18;;;4.47;;
18445;SDS011;9352;50.888;4.466;2022-08-19T11:40:53;6.03;;;4.78;;
18445;SDS011;9352;50.888;4.466;2022-08-19T11:43:22;5.95;;;4.22;;
18445;SDS011;9352;50.888;4.466;2022-08-19T11:45:51;4.07;;;3.78;;
18445;SDS011;9352;50.888;4.466;2022-08-19T11:48:18;3.92;;;3.53;;
18445;SDS011;9352;50.888;4.466;2022-08-19T11:50:47;4.28;;;3.75;;
18445;SDS011;9352;50.888;4.466;2022-08-19T11:53:14;5.45;;;3.83;;
18445;SDS011;9352;50.888;4.466;2022-08-19T11:55:41;7.32;;;4.53;;
18445;SDS011;9352;50.888;4.466;2022-08-19T11:58:09;8.60;;;6.93;;
18445;SDS011;9352;50.888;4.466;2022-08-19T12:00:38;19.25;;;7.28;;
18445;SDS011;9352;50.888;4.466;2022-08-19T12:03:05;9.40;;;7.25;;
18445;SDS011;9352;50.888;4.466;2022-08-19T12:05:32;7.82;;;7.03;;
18445;SDS011;9352;50.888;4.466;2022-08-19T12:08:02;10.20;;;6.97;;
18445;SDS011;9352;50.888;4.466;2022-08-19T12:10:29;12.27;;;7.00;;
18445;SDS011;9352;50.888;4.466;2022-08-19T12:12:56;15.27;;;6.45;;
18445;SDS011;9352;50.888;4.466;2022-08-19T12:15:22;7.38;;;5.50;;
18445;SDS011;9352;50.888;4.466;2022-08-19T12:17:51;8.23;;;5.78;;
18445;SDS011;9352;50.888;4.466;2022-08-19T12:20:21;8.30;;;6.15;;
18445;SDS011;9352;50.888;4.466;2022-08-19T12:22:49;7.40;;;6.38;;
18445;SDS011;9352;50.888;4.466;2022-08-19T12:25:17;8.07;;;5.80;;
18445;SDS011;9352;50.888;4.466;2022-08-19T12:27:43;11.75;;;5.38;;
18445;SDS011;9352;50.888;4.466;2022-08-19T12:30:11;6.78;;;5.15;;
18445;SDS011;9352;50.888;4.466;2022-08-19T12:32:39;6.40;;;5.40;;
18445;SDS011;9352;50.888;4.466;2022-08-19T12:35:08;5.57;;;5.07;;
18445;SDS011;9352;50.888;4.466;2022-08-19T12:37:36;10.07;;;4.65;;
18445;SDS011;9352;50.888;4.466;2022-08-19T12:40:04;12.85;;;4.70;;
18445;SDS011;9352;50.888;4.466;2022-08-19T12:42:31;6.38;;;4.40;;
18445;SDS011;9352;50.888;4.466;2022-08-19T12:44:58;4.20;;;3.90;;
18445;SDS011;9352;50.888;4.466;2022-08-19T12:47:25;7.50;;;4.50;;
18445;SDS011;9352;50.888;4.466;2022-08-19T12:49:52;6.38;;;4.80;;
18445;SDS011;9352;50.888;4.466;2022-08-19T12:52:21;6.88;;;4.47;;
18445;SDS011;9352;50.888;4.466;2022-08-19T12:54:50;5.55;;;4.00;;
18445;SDS011;9352;50.888;4.466;2022-08-19T12:57:17;5.47;;;4.63;;
18445;SDS011;9352;50.888;4.466;2022-08-19T12:59:44;8.85;;;3.78;;
18445;SDS011;9352;50.888;4.466;2022-08-19T13:02:11;3.63;;;3.33;;
18445;SDS011;9352;50.888;4.466;2022-08-19T13:04:38;5.38;;;3.45;;
18445;SDS011;9352;50.888;4.466;2022-08-19T13:07:06;6.30;;;2.92;;
18445;SDS011;9352;50.888;4.466;2022-08-19T13:09:35;7.35;;;2.70;;
18445;SDS011;9352;50.888;4.466;2022-08-19T13:12:02;5.15;;;3.08;;
18445;SDS011;9352;50.888;4.466;2022-08-19T13:14:32;9.82;;;2.90;;
18445;SDS011;9352;50.888;4.466;2022-08-19T13:17:00;3.92;;;3.58;;
18445;SDS011;9352;50.888;4.466;2022-08-19T13:19:27;2.97;;;2.78;;
18445;SDS011;9352;50.888;4.466;2022-08-19T13:21:55;3.58;;;2.75;;
18445;SDS011;9352;50.888;4.466;2022-08-19T13:24:23;2.35;;;2.17;;
18445;SDS011;9352;50.888;4.466;2022-08-19T13:26:52;2.35;;;2.03;;
18445;SDS011;9352;50.888;4.466;2022-08-19T13:29:19;2.10;;;1.88;;
18445;SDS011;9352;50.888;4.466;2022-08-19T13:32:03;3.70;;;2.50;;
18445;SDS011;9352;50.888;4.466;2022-08-19T13:34:47;8.65;;;2.28;;
18445;SDS011;9352;50.888;4.466;2022-08-19T13:37:14;3.08;;;2.40;;
18445;SDS011;9352;50.888;4.466;2022-08-19T13:39:41;2.63;;;1.98;;
18445;SDS011;9352;50.888;4.466;2022-08-19T13:42:09;2.05;;;1.83;;
18445;SDS011;9352;50.888;4.466;2022-08-19T13:44:38;2.33;;;1.85;;
18445;SDS011;9352;50.888;4.466;2022-08-19T13:47:05;2.60;;;2.30;;
18445;SDS011;9352;50.888;4.466;2022-08-19T13:49:33;5.63;;;2.20;;
18445;SDS011;9352;50.888;4.466;2022-08-19T13:52:01;2.92;;;1.73;;
18445;SDS011;9352;50.888;4.466;2022-08-19T13:54:28;2.63;;;1.40;;
18445;SDS011;9352;50.888;4.466;2022-08-19T13:56:55;1.75;;;1.65;;
18445;SDS011;9352;50.888;4.466;2022-08-19T13:59:23;6.97;;;2.05;;
18445;SDS011;9352;50.888;4.466;2022-08-19T14:01:50;3.45;;;1.40;;
18445;SDS011;9352;50.888;4.466;2022-08-19T14:04:18;3.60;;;1.60;;
18445;SDS011;9352;50.888;4.466;2022-08-19T14:06:45;3.60;;;1.92;;
18445;SDS011;9352;50.888;4.466;2022-08-19T14:09:11;3.55;;;1.50;;
18445;SDS011;9352;50.888;4.466;2022-08-19T14:11:38;2.15;;;1.67;;
18445;SDS011;9352;50.888;4.466;2022-08-19T14:14:05;2.13;;;1.60;;
18445;SDS011;9352;50.888;4.466;2022-08-19T14:16:33;4.43;;;1.73;;
18445;SDS011;9352;50.888;4.466;2022-08-19T14:19:00;3.13;;;2.00;;
18445;SDS011;9352;50.888;4.466;2022-08-19T14:21:27;9.07;;;2.08;;
18445;SDS011;9352;50.888;4.466;2022-08-19T14:23:54;4.55;;;2.00;;
18445;SDS011;9352;50.888;4.466;2022-08-19T14:26:21;10.93;;;2.50;;
18445;SDS011;9352;50.888;4.466;2022-08-19T14:28:49;4.28;;;2.10;;
18445;SDS011;9352;50.888;4.466;2022-08-19T14:31:17;2.25;;;2.08;;
18445;SDS011;9352;50.888;4.466;2022-08-19T14:33:47;7.75;;;2.10;;
18445;SDS011;9352;50.888;4.466;2022-08-19T14:36:15;6.40;;;2.50;;
18445;SDS011;9352;50.888;4.466;2022-08-19T14:38:42;4.07;;;2.50;;
18445;SDS011;9352;50.888;4.466;2022-08-19T14:41:12;4.65;;;2.40;;
18445;SDS011;9352;50.888;4.466;2022-08-19T14:43:41;4.78;;;2.42;;
18445;SDS011;9352;50.888;4.466;2022-08-19T14:46:11;5.05;;;2.72;;
18445;SDS011;9352;50.888;4.466;2022-08-19T14:48:39;5.07;;;2.50;;
18445;SDS011;9352;50.888;4.466;2022-08-19T14:51:07;8.77;;;2.20;;
18445;SDS011;9352;50.888;4.466;2022-08-19T14:53:34;1.70;;;1.60;;
18445;SDS011;9352;50.888;4.466;2022-08-19T14:56:01;3.08;;;1.70;;
18445;SDS011;9352;50.888;4.466;2022-08-19T14:58:34;4.82;;;1.40;;